Time;durP1;ratioP1;P1;durP2;ratioP2;P2;SDS_P1;SDS_P2;PMS_P1;PMS_P2;Temp;Humidity;BMP_temperature;BMP_pressure;BME280_temperature;BME280_humidity;BME280_pressure;Samples;Min_cycle;Max_cycle;Signal;HPM_P1;HPM_P2
2023/10/04 00:00:21;;;;;;;11.43;1.80;;;;;;;-146.27;59.72;81944.28;5027708;28;19917;-71
2023/10/04 00:02:55;;;;;;;8.35;1.90;;;;;;;-146.27;59.68;81928.22;5029457;28;20033;-71
2023/10/04 00:05:24;;;;;;;9.52;1.58;;;;;;;-146.27;60.44;81956.34;5028225;28;20034;-69
2023/10/04 00:07:52;;;;;;;10.85;2.42;;;;;;;-146.27;60.47;81948.31;5030734;28;20022;-69
2023/10/04 00:10:18;;;;;;;5.88;1.75;;;;;;;-146.27;60.59;81994.50;5031456;28;20043;-69
2023/10/04 00:12:45;;;;;;;9.98;1.70;;;;;;;-146.27;60.50;81954.31;5032079;28;20500;-69
2023/10/04 00:15:13;;;;;;;6.25;1.50;;;;;;;-146.27;60.61;81928.22;5022876;28;20044;-69
2023/10/04 00:17:43;;;;;;;8.00;1.52;;;;;;;-146.27;60.80;81958.34;5025174;28;20487;-69
2023/10/04 00:20:10;;;;;;;6.93;1.67;;;;;;;-146.27;61.08;81938.25;5030964;28;20021;-69
2023/10/04 00:22:40;;;;;;;7.85;2.08;;;;;;;-146.27;61.51;81998.50;5028393;28;20371;-69
2023/10/04 00:25:16;;;;;;;10.05;1.58;;;;;;;-146.27;61.21;81970.41;5024911;28;20528;-69
2023/10/04 00:27:43;;;;;;;7.43;1.77;;;;;;;-146.27;61.29;81936.25;5026875;28;20021;-69
2023/10/04 00:30:12;;;;;;;5.53;1.65;;;;;;;-146.27;60.70;81890.06;5030757;28;20075;-70
2023/10/04 00:32:38;;;;;;;9.15;1.83;;;;;;;-146.27;61.58;81992.50;5027519;28;20036;-69
2023/10/04 00:35:12;;;;;;;8.25;1.85;;;;;;;-146.27;61.04;81946.28;5025844;28;20021;-70
2023/10/04 00:37:44;;;;;;;20.50;2.08;;;;;;;-146.27;61.04;81990.47;5023752;28;20031;-69
2023/10/04 00:40:18;;;;;;;6.75;1.75;;;;;;;-146.27;61.07;81962.34;5021747;28;20034;-69
2023/10/04 00:42:48;;;;;;;7.88;2.03;;;;;;;-146.27;61.45;81960.34;5019794;28;20033;-66
2023/10/04 00:45:13;;;;;;;10.43;1.75;;;;;;;-146.27;61.07;81966.38;5024142;28;20025;-69
2023/10/04 00:47:48;;;;;;;10.23;1.60;;;;;;;-146.27;61.06;81970.41;5019826;28;20103;-69
2023/10/04 00:50:16;;;;;;;10.35;1.88;;;;;;;-146.27;61.25;81958.34;5027690;28;20053;-70
2023/10/04 00:53:08;;;;;;;5.68;1.30;;;;;;;-146.27;60.85;81962.34;5021573;28;20045;-68
2023/10/04 00:55:44;;;;;;;10.50;1.70;;;;;;;-146.27;60.75;82006.53;5022207;28;20014;-69
2023/10/04 00:58:12;;;;;;;9.07;3.28;;;;;;;-146.27;60.38;81958.34;5021912;28;20057;-69
2023/10/04 01:00:38;;;;;;;8.65;1.83;;;;;;;-146.27;60.17;81926.22;5019453;28;20025;-69
2023/10/04 01:03:05;;;;;;;7.35;1.45;;;;;;;-146.27;60.41;81980.44;5025725;28;20449;-69
2023/10/04 01:05:32;;;;;;;13.23;1.70;;;;;;;-146.27;61.08;82016.59;5028471;28;20026;-70
2023/10/04 01:08:00;;;;;;;9.38;1.95;;;;;;;-146.27;61.17;81990.47;5024622;28;20057;-70
2023/10/04 01:10:31;;;;;;;10.80;2.22;;;;;;;-146.27;61.40;81940.25;5023133;28;20035;-68
2023/10/04 01:12:57;;;;;;;17.40;2.40;;;;;;;-146.27;61.26;81962.34;5023849;28;20045;-69
2023/10/04 01:17:53;;;;;;;4.35;1.50;;;;;;;-146.27;61.79;82040.69;5026139;28;20049;-69
2023/10/04 01:20:27;;;;;;;8.60;1.90;;;;;;;-146.27;61.87;81950.31;5021810;28;20033;-68
2023/10/04 01:23:05;;;;;;;6.80;2.00;;;;;;;-146.27;62.14;82006.53;5024999;28;20359;-68
2023/10/04 01:25:32;;;;;;;9.75;2.15;;;;;;;-146.27;62.28;81994.50;5030436;28;20065;-69
2023/10/04 01:27:59;;;;;;;8.70;2.20;;;;;;;-146.27;62.88;82062.78;5029177;28;20033;-69
2023/10/04 01:30:25;;;;;;;10.15;1.73;;;;;;;-146.27;62.01;81954.31;5029005;28;20041;-68
2023/10/04 01:32:51;;;;;;;11.02;1.92;;;;;;;-146.27;61.90;82006.53;5029289;28;20477;-69
2023/10/04 01:35:24;;;;;;;10.32;2.25;;;;;;;-146.27;62.63;82066.81;5024383;28;20040;-71
2023/10/04 01:37:53;;;;;;;8.07;1.65;;;;;;;-146.27;62.45;82016.59;5030349;28;20033;-68
2023/10/04 01:40:22;;;;;;;11.88;1.73;;;;;;;-146.27;62.43;82076.84;5028078;28;20029;-69
2023/10/04 01:42:47;;;;;;;7.30;1.27;;;;;;;-146.27;62.22;82044.72;5018395;28;20520;-69
2023/10/04 01:45:18;;;;;;;5.78;1.65;;;;;;;-146.27;61.46;81992.50;5020089;28;20026;-69
2023/10/04 01:47:44;;;;;;;7.60;1.63;;;;;;;-146.27;61.37;81966.38;5028724;28;20108;-69
2023/10/04 01:50:10;;;;;;;4.78;1.50;;;;;;;-146.27;61.55;82010.56;5017693;28;20087;-69
2023/10/04 01:52:38;;;;;;;9.70;1.60;;;;;;;-146.27;61.17;81990.47;5024483;28;20042;-70
2023/10/04 01:55:10;;;;;;;10.05;1.45;;;;;;;-146.27;61.16;81994.50;5021691;28;20022;-69
2023/10/04 01:57:40;;;;;;;8.05;1.67;;;;;;;-146.27;61.72;82016.59;5024020;28;20061;-70
2023/10/04 02:00:10;;;;;;;12.93;1.90;;;;;;;-146.27;61.63;82038.69;5018829;28;20036;-70
2023/10/04 02:02:38;;;;;;;10.80;1.55;;;;;;;-146.27;61.38;81966.38;5020386;28;20435;-69
2023/10/04 02:05:05;;;;;;;11.30;3.25;;;;;;;-146.27;61.37;81986.47;5022262;28;20088;-69
2023/10/04 02:07:32;;;;;;;6.40;1.50;;;;;;;-146.27;61.79;82006.53;5026835;28;20073;-69
2023/10/04 02:09:58;;;;;;;8.07;1.95;;;;;;;-146.27;61.74;81992.50;5028250;28;20048;-69
2023/10/04 02:12:23;;;;;;;8.45;1.52;;;;;;;-146.27;62.29;82054.75;5015112;28;20033;-70
2023/10/04 02:14:53;;;;;;;6.68;1.63;;;;;;;-146.27;62.64;81998.50;5025744;28;20124;-70
2023/10/04 02:17:20;;;;;;;6.72;1.35;;;;;;;-146.27;62.62;82022.63;5025253;28;20512;-69
2023/10/04 02:19:46;;;;;;;6.20;1.58;;;;;;;-146.27;62.90;82034.66;5029405;28;20450;-68
2023/10/04 02:22:12;;;;;;;7.68;1.77;;;;;;;-146.27;63.20;82042.69;5018375;28;20101;-68
2023/10/04 02:24:38;;;;;;;5.68;1.50;;;;;;;-146.27;63.36;82018.59;5019725;28;20072;-70
2023/10/04 02:27:07;;;;;;;8.43;1.98;;;;;;;-146.27;63.32;82046.72;5027539;28;20033;-70
2023/10/04 02:29:38;;;;;;;6.38;2.22;;;;;;;-146.27;64.09;82062.78;5027313;28;20029;-70
2023/10/04 02:32:10;;;;;;;6.72;1.70;;;;;;;-146.27;64.56;82115.00;5024506;28;20025;-70
2023/10/04 02:34:38;;;;;;;7.28;2.00;;;;;;;-146.27;64.00;82080.88;5028535;28;20095;-70
2023/10/04 02:37:09;;;;;;;9.13;1.90;;;;;;;-146.27;63.98;82026.63;5027566;28;20136;-70
2023/10/04 02:39:38;;;;;;;13.05;2.10;;;;;;;-146.27;63.71;82078.84;5026289;28;20468;-70
2023/10/04 02:42:12;;;;;;;7.82;1.70;;;;;;;-146.27;64.23;82074.84;5027773;28;20075;-70
2023/10/04 02:44:38;;;;;;;11.98;1.98;;;;;;;-146.27;63.99;82048.72;5018580;28;20496;-70
2023/10/04 02:47:06;;;;;;;9.75;1.83;;;;;;;-146.27;63.98;82018.59;5024980;28;20037;-70
2023/10/04 02:49:39;;;;;;;8.07;1.60;;;;;;;-146.27;63.48;82052.75;5028919;28;20402;-70
2023/10/04 02:52:12;;;;;;;6.88;1.63;;;;;;;-146.27;63.46;82058.78;5022849;28;20585;-70
2023/10/04 02:54:38;;;;;;;9.65;3.03;;;;;;;-146.27;63.07;82034.66;5020081;28;20017;-70
2023/10/04 02:57:08;;;;;;;7.20;1.42;;;;;;;-146.27;62.97;82062.78;5022362;28;20063;-71
2023/10/04 02:59:34;;;;;;;9.95;1.70;;;;;;;-146.27;63.22;82036.69;5022395;28;20408;-70
2023/10/04 03:02:01;;;;;;;10.23;2.25;;;;;;;-146.27;63.38;82046.72;5014437;28;20114;-70
2023/10/04 03:04:28;;;;;;;7.53;1.63;;;;;;;-146.27;63.98;82082.88;5021179;28;20431;-70
2023/10/04 03:06:54;;;;;;;6.60;1.52;;;;;;;-146.27;63.97;82058.78;5014864;28;20070;-70
2023/10/04 03:09:19;;;;;;;12.57;1.90;;;;;;;-146.27;63.90;82060.78;5024182;28;20030;-70
2023/10/04 03:11:44;;;;;;;8.57;2.05;;;;;;;-146.27;64.34;82082.88;5026911;28;20036;-70
2023/10/04 03:14:12;;;;;;;10.15;2.10;;;;;;;-146.27;64.37;82078.84;5024969;28;20469;-70
2023/10/04 03:16:40;;;;;;;10.23;1.90;;;;;;;-146.27;64.78;82149.16;5021273;28;20431;-70
2023/10/04 03:19:06;;;;;;;15.93;1.90;;;;;;;-146.27;64.82;82141.13;5025722;28;20018;-71
2023/10/04 03:21:33;;;;;;;16.33;2.45;;;;;;;-146.27;64.34;82127.06;5022937;28;20042;-70
2023/10/04 03:23:58;;;;;;;8.32;2.15;;;;;;;-146.27;64.02;82086.91;5026271;28;20616;-69
2023/10/04 03:26:24;;;;;;;5.40;1.83;;;;;;;-146.27;63.89;82072.84;5021509;28;20104;-70
2023/10/04 03:28:49;;;;;;;10.27;1.60;;;;;;;-146.27;63.87;82109.00;5020016;28;20029;-70
2023/10/04 03:31:16;;;;;;;8.07;2.30;;;;;;;-146.27;64.27;82111.00;5019801;28;20026;-72
2023/10/04 03:33:45;;;;;;;15.05;2.30;;;;;;;-146.27;65.26;82121.03;5024067;28;20034;-70
2023/10/04 03:36:14;;;;;;;12.15;2.22;;;;;;;-146.27;65.69;82135.09;5017538;28;20026;-68
2023/10/04 03:38:41;;;;;;;8.45;1.67;;;;;;;-146.27;66.11;82175.28;5018101;28;20613;-67
2023/10/04 03:41:06;;;;;;;8.10;2.42;;;;;;;-146.27;66.42;82187.31;5018008;28;20041;-70
2023/10/04 03:43:35;;;;;;;14.90;2.28;;;;;;;-146.27;66.14;82207.41;5025197;28;20021;-71
2023/10/04 03:46:16;;;;;;;8.98;2.13;;;;;;;-146.27;66.87;82231.53;5016531;28;20028;-69
2023/10/04 03:48:42;;;;;;;9.68;1.77;;;;;;;-146.27;67.65;82241.56;5028916;28;20098;-70
2023/10/04 03:51:07;;;;;;;10.88;3.05;;;;;;;-146.27;67.45;82201.38;5022015;28;20021;-69
2023/10/04 03:53:33;;;;;;;9.68;2.13;;;;;;;-146.27;67.74;82243.56;5028026;28;20072;-70
2023/10/04 03:56:04;;;;;;;14.13;2.58;;;;;;;-146.27;68.70;82247.59;5023864;28;20056;-69
2023/10/04 03:58:29;;;;;;;9.63;1.85;;;;;;;-146.27;68.88;82269.69;5025073;28;20021;-70
2023/10/04 04:00:55;;;;;;;11.00;3.08;;;;;;;-146.27;67.82;82251.59;5027842;28;20132;-70
2023/10/04 04:03:22;;;;;;;9.32;2.15;;;;;;;-146.27;68.11;82251.59;5029444;28;20017;-68
2023/10/04 04:05:48;;;;;;;8.43;1.65;;;;;;;-146.27;68.27;82257.63;5020392;28;20057;-69
2023/10/04 04:08:14;;;;;;;11.13;2.40;;;;;;;-146.27;68.29;82271.69;5022066;28;20033;-69
2023/10/04 04:10:40;;;;;;;8.98;2.17;;;;;;;-146.27;67.89;82269.69;5024352;28;20022;-70
2023/10/04 04:13:06;;;;;;;9.00;2.75;;;;;;;-146.27;68.25;82283.75;5024676;28;20604;-69
2023/10/04 04:15:36;;;;;;;9.15;1.90;;;;;;;-146.27;67.98;82261.66;5028101;28;20382;-70
2023/10/04 04:18:06;;;;;;;17.80;3.10;;;;;;;-146.27;68.71;82279.72;5026277;28;20033;-69
2023/10/04 04:20:32;;;;;;;9.85;1.98;;;;;;;-146.27;68.39;82297.81;5029425;28;20124;-69
2023/10/04 04:22:57;;;;;;;5.30;2.13;;;;;;;-146.27;68.75;82303.84;5032254;28;20028;-69
2023/10/04 04:25:24;;;;;;;11.18;2.60;;;;;;;-146.27;68.63;82297.81;5032206;28;22222;-69
2023/10/04 04:27:51;;;;;;;11.70;2.95;;;;;;;-146.27;68.69;82275.72;5027737;28;20170;-69
2023/10/04 04:30:19;;;;;;;10.52;2.63;;;;;;;-146.27;68.88;82267.69;5015098;28;20031;-70
2023/10/04 04:32:47;;;;;;;9.50;1.95;;;;;;;-146.27;69.13;82267.69;5027609;28;20040;-69
2023/10/04 04:35:22;;;;;;;10.07;2.20;;;;;;;-146.27;69.46;82311.88;5024288;28;20104;-69
2023/10/04 04:37:48;;;;;;;12.55;2.50;;;;;;;-146.27;69.86;82307.84;5020718;28;20034;-68
2023/10/04 04:40:23;;;;;;;9.52;2.40;;;;;;;-146.27;70.68;82327.94;5018006;28;20036;-70
2023/10/04 04:42:48;;;;;;;8.60;2.08;;;;;;;-146.27;70.42;82348.03;5020622;28;20030;-68
2023/10/04 04:45:16;;;;;;;12.63;2.78;;;;;;;-146.27;70.95;82327.94;5020047;28;20034;-69
2023/10/04 04:47:44;;;;;;;10.90;2.45;;;;;;;-146.27;70.68;82344.00;5022975;28;20033;-69
2023/10/04 04:50:12;;;;;;;18.02;2.30;;;;;;;-146.27;70.40;82331.97;5033015;28;20033;-69
2023/10/04 04:52:37;;;;;;;14.85;3.45;;;;;;;-146.27;70.47;82350.03;5031722;28;20033;-69
2023/10/04 04:55:04;;;;;;;11.85;2.30;;;;;;;-146.27;70.01;82331.97;5027723;28;20403;-70
2023/10/04 04:57:31;;;;;;;11.85;2.20;;;;;;;-146.27;69.85;82342.00;5029286;28;20187;-69
2023/10/04 04:59:57;;;;;;;9.20;2.28;;;;;;;-146.27;69.93;82346.03;5024315;28;20125;-69
2023/10/04 05:02:28;;;;;;;10.60;3.25;;;;;;;-146.27;69.76;82348.03;5020080;28;20513;-69
2023/10/04 05:04:55;;;;;;;13.73;2.85;;;;;;;-146.27;69.59;82319.91;5014989;28;20022;-68
2023/10/04 05:07:20;;;;;;;6.03;2.17;;;;;;;-146.27;70.15;82350.03;5020561;28;20044;-68
2023/10/04 05:09:46;;;;;;;8.13;2.10;;;;;;;-146.27;70.27;82358.06;5023017;28;20393;-69
2023/10/04 05:12:11;;;;;;;8.25;2.50;;;;;;;-146.27;70.04;82356.06;5030619;28;20451;-68
2023/10/04 05:14:37;;;;;;;9.38;2.42;;;;;;;-146.27;70.67;82388.22;5026202;28;20037;-70
2023/10/04 05:17:02;;;;;;;9.48;2.53;;;;;;;-146.27;70.56;82396.25;5020784;28;20060;-69
2023/10/04 05:19:29;;;;;;;7.35;2.15;;;;;;;-146.27;71.17;82400.25;5029352;28;20497;-68
2023/10/04 05:21:54;;;;;;;12.23;2.17;;;;;;;-146.27;71.02;82364.09;5027343;28;20029;-68
2023/10/04 05:24:20;;;;;;;5.95;2.35;;;;;;;-146.27;70.87;82396.25;5016832;28;20018;-69
2023/10/04 05:26:45;;;;;;;10.20;2.45;;;;;;;-146.27;71.20;82428.38;5025037;28;20478;-75
2023/10/04 05:29:12;;;;;;;8.20;2.05;;;;;;;-146.27;71.61;82418.34;5026902;28;20052;-67
2023/10/04 05:31:37;;;;;;;8.75;2.30;;;;;;;-146.27;72.29;82460.53;5031337;28;20060;-68
2023/10/04 05:34:03;;;;;;;12.00;2.33;;;;;;;-146.27;73.17;82480.59;5031329;28;20507;-68
2023/10/04 05:36:28;;;;;;;9.85;2.65;;;;;;;-146.27;73.78;82462.53;5020180;28;20026;-68
2023/10/04 05:38:53;;;;;;;13.35;3.25;;;;;;;-146.27;73.72;82500.69;5017313;28;20025;-68
2023/10/04 05:41:19;;;;;;;10.82;2.90;;;;;;;-146.27;74.20;82520.78;5016922;28;20022;-68
2023/10/04 05:43:44;;;;;;;12.07;2.20;;;;;;;-146.27;74.55;82508.72;5021691;28;20022;-68
2023/10/04 05:46:10;;;;;;;12.57;3.55;;;;;;;-146.27;74.69;82562.97;5024488;28;20060;-68
2023/10/04 05:48:35;;;;;;;12.15;2.67;;;;;;;-146.27;74.88;82528.81;5012141;28;20032;-70
2023/10/04 05:51:01;;;;;;;12.20;3.20;;;;;;;-146.27;74.82;82560.97;5015606;28;20033;-68
2023/10/04 05:53:27;;;;;;;9.18;2.75;;;;;;;-146.27;75.06;82548.91;5026037;28;20180;-67
2023/10/04 05:55:52;;;;;;;16.98;2.92;;;;;;;-146.27;75.45;82569.00;5028987;28;20033;-70
2023/10/04 05:58:18;;;;;;;13.25;2.78;;;;;;;-146.27;75.66;82542.88;5013698;28;20174;-72
2023/10/04 06:00:52;;;;;;;15.05;2.45;;;;;;;-146.27;76.14;82524.81;5020031;28;20032;-71
2023/10/04 06:03:18;;;;;;;9.75;2.70;;;;;;;-146.27;76.33;82548.91;5029953;28;20017;-71
2023/10/04 06:05:44;;;;;;;15.23;3.28;;;;;;;-146.27;76.50;82552.94;5012467;28;20091;-71
2023/10/04 06:08:23;;;;;;;8.38;2.70;;;;;;;-146.27;75.95;82532.84;5019905;28;20097;-72
2023/10/04 06:10:51;;;;;;;14.82;2.53;;;;;;;-146.27;76.22;82538.88;5030963;28;20037;-72
2023/10/04 06:13:17;;;;;;;13.95;3.17;;;;;;;-146.27;75.89;82560.97;5041843;28;20113;-71
2023/10/04 06:15:48;;;;;;;9.57;2.85;;;;;;;-146.27;76.53;82587.09;5046509;28;20557;-71
2023/10/04 06:18:14;;;;;;;19.45;3.00;;;;;;;-146.27;77.61;82540.88;5029265;28;20021;-72
2023/10/04 06:20:40;;;;;;;16.02;3.33;;;;;;;-146.27;76.93;82556.94;5023185;28;20029;-72
2023/10/04 06:23:09;;;;;;;14.30;2.67;;;;;;;-146.27;77.14;82536.84;5010647;28;20029;-71
2023/10/04 06:25:39;;;;;;;15.30;3.05;;;;;;;-146.27;76.77;82536.84;5016881;28;20457;-71
2023/10/04 06:28:04;;;;;;;17.58;3.08;;;;;;;-146.27;76.87;82432.41;5028298;28;20037;-71
2023/10/04 06:30:32;;;;;;;17.70;3.20;;;;;;;-146.27;76.74;82512.75;5015066;28;20390;-70
2023/10/04 06:33:02;;;;;;;11.77;2.47;;;;;;;-146.27;76.81;82500.69;5023632;28;20036;-70
2023/10/04 06:35:29;;;;;;;13.02;2.95;;;;;;;-146.27;76.58;82472.56;5021494;28;20118;-70
2023/10/04 06:38:00;;;;;;;15.70;2.88;;;;;;;-146.27;76.58;82490.66;5028228;28;20139;-70
2023/10/04 06:40:27;;;;;;;11.98;2.80;;;;;;;-146.27;76.97;82484.63;5030122;28;20107;-70
2023/10/04 06:42:57;;;;;;;16.50;3.28;;;;;;;-146.27;76.82;82464.53;5030189;28;20022;-70
2023/10/04 06:45:26;;;;;;;13.40;3.05;;;;;;;-146.27;76.75;82458.50;5021008;28;20026;-70
2023/10/04 06:47:56;;;;;;;13.32;3.47;;;;;;;-146.27;76.93;82468.56;5021321;28;20022;-70
2023/10/04 06:50:28;;;;;;;13.20;2.92;;;;;;;-146.27;76.45;82436.41;5020633;28;20518;-70
2023/10/04 06:52:54;;;;;;;14.23;3.05;;;;;;;-146.27;76.31;82414.31;5010814;28;20475;-71
2023/10/04 06:55:20;;;;;;;11.93;2.70;;;;;;;-146.27;76.66;82402.25;5017895;28;20032;-70
2023/10/04 06:57:47;;;;;;;12.80;2.67;;;;;;;-146.27;76.06;82388.22;5029443;28;20048;-70
2023/10/04 07:00:18;;;;;;;12.55;2.85;;;;;;;-146.27;75.62;82376.16;5030019;28;20052;-69
2023/10/04 07:02:49;;;;;;;13.82;3.17;;;;;;;-146.27;75.79;82281.75;5014234;28;20033;-70
2023/10/04 07:05:19;;;;;;;10.95;3.05;;;;;;;-146.27;75.29;82329.94;5022534;28;20501;-70
2023/10/04 07:07:46;;;;;;;12.38;2.70;;;;;;;-146.27;75.23;82293.78;5021838;28;20493;-69
2023/10/04 07:10:15;;;;;;;17.95;3.58;;;;;;;-146.27;74.88;82299.81;5010890;28;20412;-70
2023/10/04 07:12:45;;;;;;;11.50;2.95;;;;;;;-146.27;75.30;82335.97;5023674;28;20111;-69
2023/10/04 07:15:11;;;;;;;13.23;3.97;;;;;;;-146.27;74.96;82295.81;5019196;28;20049;-69
2023/10/04 07:17:39;;;;;;;13.38;3.60;;;;;;;-146.27;74.49;82283.75;5016814;28;20033;-70
2023/10/04 07:20:07;;;;;;;12.68;2.75;;;;;;;-146.27;74.36;82255.63;5027407;28;20301;-69
2023/10/04 07:22:33;;;;;;;13.80;3.10;;;;;;;-146.27;74.93;82295.81;5013757;28;20030;-70
2023/10/04 07:24:59;;;;;;;13.70;3.15;;;;;;;-146.27;74.28;82241.56;5009742;28;20033;-70
2023/10/04 07:27:26;;;;;;;15.23;3.67;;;;;;;-146.27;75.21;82263.66;5020009;28;20029;-71
2023/10/04 07:29:52;;;;;;;19.50;3.75;;;;;;;-146.27;74.74;82217.47;5028837;28;20037;-70
2023/10/04 07:32:19;;;;;;;15.93;3.85;;;;;;;-146.27;75.19;82253.63;5012927;28;20034;-69
2023/10/04 07:34:44;;;;;;;14.40;4.38;;;;;;;-146.27;74.90;82211.44;5026113;28;20033;-68
2023/10/04 07:37:10;;;;;;;11.85;3.35;;;;;;;-146.27;75.15;82241.56;5024795;28;20441;-70
2023/10/04 07:39:35;;;;;;;14.57;3.53;;;;;;;-146.27;74.80;82155.19;5025204;28;20425;-66
2023/10/04 07:42:02;;;;;;;13.15;3.58;;;;;;;-146.27;75.06;82111.00;5021205;28;20047;-70
2023/10/04 07:44:30;;;;;;;16.27;3.47;;;;;;;-146.27;75.03;82167.25;5028561;28;20040;-69
2023/10/04 07:47:01;;;;;;;14.85;5.10;;;;;;;-146.27;75.32;82127.06;5025783;28;20136;-69
2023/10/04 07:49:29;;;;;;;13.80;3.67;;;;;;;-146.27;75.75;82133.09;5031628;28;20048;-68
2023/10/04 07:51:56;;;;;;;16.65;3.58;;;;;;;-146.27;76.16;82109.00;5026077;28;20033;-69
2023/10/04 07:54:22;;;;;;;14.25;3.10;;;;;;;-146.27;75.54;82082.88;5020711;28;20057;-71
2023/10/04 07:56:49;;;;;;;15.95;3.40;;;;;;;-146.27;75.03;82086.91;5023480;28;20112;-69
2023/10/04 07:59:15;;;;;;;15.73;3.50;;;;;;;-146.27;75.01;82058.78;5022451;28;20029;-69
2023/10/04 08:01:41;;;;;;;15.73;3.70;;;;;;;-146.27;74.86;82086.91;5032392;28;20118;-71
2023/10/04 08:04:07;;;;;;;17.08;4.35;;;;;;;-146.27;74.66;82066.81;5026691;28;20037;-69
2023/10/04 08:06:35;;;;;;;14.05;3.28;;;;;;;-146.27;74.80;82030.66;5028508;28;20048;-70
2023/10/04 08:09:00;;;;;;;19.85;3.30;;;;;;;-146.27;74.52;82026.63;5023700;28;20037;-69
2023/10/04 08:11:27;;;;;;;13.93;3.33;;;;;;;-146.27;74.14;81986.47;5015209;28;20033;-70
2023/10/04 08:13:52;;;;;;;11.23;3.35;;;;;;;-146.27;74.04;81944.28;5018060;28;20481;-69
2023/10/04 08:16:18;;;;;;;15.75;3.80;;;;;;;-146.27;74.11;81950.31;5030708;28;20033;-69
2023/10/04 08:18:43;;;;;;;15.68;3.33;;;;;;;-146.27;74.40;81978.44;5030695;28;20013;-69
2023/10/04 08:21:08;;;;;;;10.27;2.90;;;;;;;-146.27;74.60;82002.53;5025559;28;20433;-69
2023/10/04 08:23:34;;;;;;;17.30;3.70;;;;;;;-146.27;74.59;81950.31;5023718;28;20407;-70
2023/10/04 08:25:59;;;;;;;10.45;3.22;;;;;;;-146.27;74.44;81988.47;5016132;28;20057;-69
2023/10/04 08:28:24;;;;;;;16.55;3.40;;;;;;;-146.27;74.62;81982.44;5022069;28;20044;-68
2023/10/04 08:30:51;;;;;;;15.88;3.40;;;;;;;-146.27;74.30;81946.28;5028638;28;20052;-68
2023/10/04 08:33:19;;;;;;;19.75;3.30;;;;;;;-146.27;74.99;82010.56;5034169;28;20029;-68
2023/10/04 08:35:46;;;;;;;16.13;3.45;;;;;;;-146.27;74.79;82022.63;5021702;28;20072;-70
2023/10/04 08:38:12;;;;;;;7.13;2.90;;;;;;;-146.27;75.05;82002.53;5024318;28;20399;-69
2023/10/04 08:40:38;;;;;;;13.82;3.38;;;;;;;-146.27;75.37;81954.31;5034661;28;20029;-70
2023/10/04 08:43:05;;;;;;;18.35;3.63;;;;;;;-146.27;75.47;81976.41;5030780;28;20025;-69
2023/10/04 08:45:33;;;;;;;14.30;3.00;;;;;;;-146.27;75.65;81984.47;5026000;28;20441;-68
2023/10/04 08:47:59;;;;;;;19.50;4.10;;;;;;;-146.27;75.92;82052.75;5022534;28;20123;-68
2023/10/04 08:50:44;;;;;;;15.60;3.30;;;;;;;-146.27;75.53;81936.25;5014122;28;20501;-69
2023/10/04 08:53:18;;;;;;;12.20;3.13;;;;;;;-146.27;75.17;81928.22;5031505;28;20033;-70
2023/10/04 08:55:51;;;;;;;11.90;3.03;;;;;;;-146.27;75.10;81946.28;5028181;28;20029;-68
2023/10/04 08:58:17;;;;;;;16.40;4.30;;;;;;;-146.27;75.43;81934.25;5028702;28;20421;-69
2023/10/04 09:00:47;;;;;;;18.75;2.88;;;;;;;-146.27;75.34;81966.38;5027462;28;20147;-69
2023/10/04 09:03:15;;;;;;;18.17;3.55;;;;;;;-146.27;75.67;81982.44;5026106;28;20052;-70
2023/10/04 09:05:46;;;;;;;18.52;3.45;;;;;;;-146.27;75.86;81970.41;5024157;28;20080;-69
2023/10/04 09:08:12;;;;;;;13.23;2.72;;;;;;;-146.27;75.62;81998.50;5024049;28;20021;-69
2023/10/04 09:10:39;;;;;;;8.70;3.20;;;;;;;-146.27;75.15;81932.22;5033202;28;20025;-69
2023/10/04 09:13:05;;;;;;;15.68;3.40;;;;;;;-146.27;75.34;81946.28;5045965;28;20114;-69
2023/10/04 09:15:31;;;;;;;12.32;3.72;;;;;;;-146.27;74.69;81847.88;5036521;28;20072;-69
2023/10/04 09:17:57;;;;;;;16.80;3.92;;;;;;;-146.27;73.99;81843.84;5046756;28;20028;-69
2023/10/04 09:20:31;;;;;;;10.52;2.60;;;;;;;-146.27;74.18;81896.06;5026244;28;20087;-69
2023/10/04 09:22:59;;;;;;;11.98;3.35;;;;;;;-146.27;74.51;81896.06;5018094;28;20025;-70
2023/10/04 09:25:35;;;;;;;15.30;3.17;;;;;;;-146.27;73.61;81843.84;5030607;28;20021;-68
2023/10/04 09:28:00;;;;;;;10.45;3.65;;;;;;;-146.27;74.37;81886.03;5031477;28;20021;-68
2023/10/04 09:30:25;;;;;;;12.68;3.40;;;;;;;-146.27;74.72;81986.47;5030238;28;20017;-68
2023/10/04 09:32:51;;;;;;;11.88;3.60;;;;;;;-146.27;73.91;81845.88;5028556;28;20044;-68
2023/10/04 09:35:20;;;;;;;14.95;3.30;;;;;;;-146.27;73.91;81843.84;5031489;28;20018;-67
2023/10/04 09:37:50;;;;;;;11.45;3.15;;;;;;;-146.27;73.63;81781.59;5020911;28;20248;-67
2023/10/04 09:40:17;;;;;;;13.50;3.05;;;;;;;-146.27;73.70;81785.59;5014264;28;20029;-69
2023/10/04 09:42:53;;;;;;;10.93;2.70;;;;;;;-146.27;73.24;81729.38;5022965;28;20038;-68
2023/10/04 09:45:26;;;;;;;14.10;3.15;;;;;;;-146.27;73.04;81761.50;5020236;28;20083;-68
2023/10/04 09:47:55;;;;;;;11.05;3.38;;;;;;;-146.27;72.50;81693.22;5031439;28;20387;-67
2023/10/04 09:50:25;;;;;;;18.02;3.47;;;;;;;-146.27;72.79;81719.31;5029947;28;20025;-67
2023/10/04 09:52:52;;;;;;;13.57;2.35;;;;;;;-146.27;72.38;81741.41;5030291;28;20033;-68
2023/10/04 09:55:20;;;;;;;11.70;2.92;;;;;;;-146.27;72.79;81837.81;5029737;28;20087;-68
2023/10/04 09:57:47;;;;;;;12.18;3.03;;;;;;;-146.27;71.55;81815.72;5018504;28;20022;-68
2023/10/04 10:00:17;;;;;;;10.80;3.13;;;;;;;-146.27;71.69;81873.97;5030639;28;20075;-68
2023/10/04 10:02:48;;;;;;;10.35;2.55;;;;;;;-146.27;66.74;81793.66;5023157;28;20025;-67
2023/10/04 10:05:36;;;;;;;11.05;2.67;;;;;;;-146.27;64.64;81797.66;5022311;28;20036;-68
2023/10/04 10:08:06;;;;;;;11.15;2.83;;;;;;;-146.27;64.75;81775.56;5041464;28;20036;-68
2023/10/04 10:10:34;;;;;;;14.65;2.70;;;;;;;-146.27;70.93;81833.81;5034136;28;20044;-68
2023/10/04 10:13:00;;;;;;;15.50;3.63;;;;;;;-146.27;71.29;81733.38;5029857;28;20037;-68
2023/10/04 10:15:26;;;;;;;12.40;2.55;;;;;;;-146.27;71.20;81701.25;5037697;28;20044;-69
2023/10/04 10:17:52;;;;;;;9.68;3.38;;;;;;;-146.27;71.11;81649.03;5030397;28;20141;-70
2023/10/04 10:20:19;;;;;;;17.10;3.28;;;;;;;-146.27;70.18;81789.63;5032282;28;20025;-69
2023/10/04 10:23:00;;;;;;;14.18;2.67;;;;;;;-146.27;68.83;81675.16;5031299;28;20026;-68
2023/10/04 10:25:32;;;;;;;16.77;3.55;;;;;;;-146.27;67.52;81705.28;5022579;28;20021;-69
2023/10/04 10:28:03;;;;;;;11.18;2.80;;;;;;;-146.27;67.80;81612.88;5019746;28;20392;-68
2023/10/04 10:30:30;;;;;;;8.45;2.58;;;;;;;-146.27;65.40;81636.97;5020172;28;20377;-69
2023/10/04 10:32:59;;;;;;;12.40;2.70;;;;;;;-146.27;65.26;81636.97;5021859;28;20084;-69
2023/10/04 10:35:48;;;;;;;8.88;2.83;;;;;;;-146.27;64.33;81518.50;5014045;28;20026;-69
2023/10/04 10:38:41;;;;;;;9.38;2.88;;;;;;;-146.27;63.71;81424.09;5012630;28;20583;-68
2023/10/04 10:41:08;;;;;;;12.73;2.93;;;;;;;-146.27;61.36;81456.22;5016959;28;20091;-69
2023/10/04 10:43:37;;;;;;;8.30;2.42;;;;;;;-146.27;59.92;81494.38;5015801;28;20301;-68
2023/10/04 10:46:31;;;;;;;9.32;2.40;;;;;;;-146.27;57.36;81506.44;5026451;28;20034;-68
2023/10/04 10:48:59;;;;;;;6.43;2.22;;;;;;;-146.27;57.16;81404.00;5030087;28;20564;-68
2023/10/04 10:51:43;;;;;;;9.57;2.58;;;;;;;-146.27;56.89;81458.22;5018684;28;20471;-69
2023/10/04 10:54:09;;;;;;;12.73;2.80;;;;;;;-146.27;57.47;81560.66;5027474;28;20030;-68
2023/10/04 10:56:38;;;;;;;9.57;2.50;;;;;;;-146.27;58.64;81500.41;5029781;28;20028;-68
2023/10/04 10:59:06;;;;;;;9.85;2.95;;;;;;;-146.27;59.14;81496.41;5030153;28;20540;-68
2023/10/04 11:01:32;;;;;;;9.13;2.67;;;;;;;-146.27;59.10;81522.50;5033748;28;20426;-68
2023/10/04 11:03:59;;;;;;;9.50;2.88;;;;;;;-146.27;59.22;81626.94;5038797;28;20040;-68
2023/10/04 11:06:25;;;;;;;10.63;3.00;;;;;;;-146.27;59.24;81687.19;5020597;28;20071;-68
2023/10/04 11:08:55;;;;;;;7.38;2.70;;;;;;;-146.27;60.49;81753.47;5030776;28;20037;-68
2023/10/04 11:11:21;;;;;;;10.88;3.10;;;;;;;-146.27;60.23;81793.66;5019152;28;20444;-68
2023/10/04 11:13:48;;;;;;;14.60;3.30;;;;;;;-146.27;61.27;81795.66;5025511;28;20359;-68
2023/10/04 11:16:14;;;;;;;7.97;2.35;;;;;;;-146.27;61.15;81765.53;5022283;28;20079;-69
2023/10/04 11:18:39;;;;;;;11.18;2.92;;;;;;;-146.27;61.31;81867.97;5030846;28;20401;-68